sensor_id;sensor_type;location;lat;lon;timestamp;temperature;humidity
49711;DHT22;35602;44.534;18.696;2022-09-06T00:00:51;25.00;60.00
49711;DHT22;35602;44.534;18.696;2022-09-06T00:05:51;25.00;60.00
49711;DHT22;35602;44.534;18.696;2022-09-06T00:10:56;25.00;60.00
49711;DHT22;35602;44.534;18.696;2022-09-06T00:16:14;25.00;60.00
49711;DHT22;35602;44.534;18.696;2022-09-06T00:21:18;25.00;60.00
49711;DHT22;35602;44.534;18.696;2022-09-06T00:26:21;24.90;60.00
49711;DHT22;35602;44.534;18.696;2022-09-06T00:31:24;25.00;60.00
49711;DHT22;35602;44.534;18.696;2022-09-06T00:36:25;25.00;60.00
49711;DHT22;35602;44.534;18.696;2022-09-06T00:41:26;25.00;60.10
49711;DHT22;35602;44.534;18.696;2022-09-06T00:46:28;24.90;60.00
49711;DHT22;35602;44.534;18.696;2022-09-06T00:51:30;24.90;60.00
49711;DHT22;35602;44.534;18.696;2022-09-06T00:56:36;24.90;59.90
49711;DHT22;35602;44.534;18.696;2022-09-06T01:01:38;24.90;60.00
49711;DHT22;35602;44.534;18.696;2022-09-06T01:06:51;24.90;59.90
49711;DHT22;35602;44.534;18.696;2022-09-06T01:12:03;24.90;59.90
49711;DHT22;35602;44.534;18.696;2022-09-06T01:27:59;24.90;59.90
49711;DHT22;35602;44.534;18.696;2022-09-06T01:33:15;24.90;59.90
49711;DHT22;35602;44.534;18.696;2022-09-06T01:38:19;24.90;59.80
49711;DHT22;35602;44.534;18.696;2022-09-06T01:43:35;24.90;59.90
49711;DHT22;35602;44.534;18.696;2022-09-06T01:52:31;24.90;59.90
49711;DHT22;35602;44.534;18.696;2022-09-06T01:57:54;24.90;60.00
49711;DHT22;35602;44.534;18.696;2022-09-06T02:11:05;24.90;60.00
49711;DHT22;35602;44.534;18.696;2022-09-06T02:16:09;24.90;60.00
49711;DHT22;35602;44.534;18.696;2022-09-06T02:21:14;24.90;59.80
49711;DHT22;35602;44.534;18.696;2022-09-06T02:26:24;24.90;59.80
49711;DHT22;35602;44.534;18.696;2022-09-06T02:31:31;24.90;59.90
49711;DHT22;35602;44.534;18.696;2022-09-06T02:36:36;24.90;59.80
49711;DHT22;35602;44.534;18.696;2022-09-06T02:41:39;24.90;59.80
49711;DHT22;35602;44.534;18.696;2022-09-06T02:46:40;24.90;59.80
49711;DHT22;35602;44.534;18.696;2022-09-06T02:51:41;24.90;59.80
49711;DHT22;35602;44.534;18.696;2022-09-06T02:56:42;24.90;60.00
49711;DHT22;35602;44.534;18.696;2022-09-06T03:01:43;24.90;59.80
49711;DHT22;35602;44.534;18.696;2022-09-06T03:06:43;24.90;59.70
49711;DHT22;35602;44.534;18.696;2022-09-06T03:11:44;24.90;59.70
49711;DHT22;35602;44.534;18.696;2022-09-06T03:16:45;24.90;59.90
49711;DHT22;35602;44.534;18.696;2022-09-06T03:21:46;24.90;59.80
49711;DHT22;35602;44.534;18.696;2022-09-06T03:26:47;24.90;59.70
49711;DHT22;35602;44.534;18.696;2022-09-06T03:31:47;24.90;59.60
49711;DHT22;35602;44.534;18.696;2022-09-06T03:36:48;24.90;59.70
49711;DHT22;35602;44.534;18.696;2022-09-06T03:41:49;24.90;59.70
49711;DHT22;35602;44.534;18.696;2022-09-06T03:46:53;24.90;59.60
49711;DHT22;35602;44.534;18.696;2022-09-06T03:51:53;24.90;59.80
49711;DHT22;35602;44.534;18.696;2022-09-06T03:56:54;24.90;59.70
49711;DHT22;35602;44.534;18.696;2022-09-06T04:01:56;24.90;59.60
49711;DHT22;35602;44.534;18.696;2022-09-06T04:06:57;24.90;59.50
49711;DHT22;35602;44.534;18.696;2022-09-06T04:11:58;24.90;59.60
49711;DHT22;35602;44.534;18.696;2022-09-06T04:16:59;24.90;59.60
49711;DHT22;35602;44.534;18.696;2022-09-06T04:21:59;24.90;59.60
49711;DHT22;35602;44.534;18.696;2022-09-06T04:27:00;24.90;59.70
49711;DHT22;35602;44.534;18.696;2022-09-06T04:32:02;24.80;59.70
49711;DHT22;35602;44.534;18.696;2022-09-06T04:37:02;24.90;59.60
49711;DHT22;35602;44.534;18.696;2022-09-06T04:42:04;24.90;59.70
49711;DHT22;35602;44.534;18.696;2022-09-06T04:47:15;24.80;59.40
49711;DHT22;35602;44.534;18.696;2022-09-06T04:52:17;24.80;59.40
49711;DHT22;35602;44.534;18.696;2022-09-06T04:57:18;24.80;59.40
49711;DHT22;35602;44.534;18.696;2022-09-06T05:02:19;24.80;59.20
49711;DHT22;35602;44.534;18.696;2022-09-06T05:07:20;24.80;59.30
49711;DHT22;35602;44.534;18.696;2022-09-06T05:12:21;24.80;59.10
49711;DHT22;35602;44.534;18.696;2022-09-06T05:17:22;24.80;59.00
49711;DHT22;35602;44.534;18.696;2022-09-06T05:22:23;24.80;59.00
49711;DHT22;35602;44.534;18.696;2022-09-06T05:27:24;24.80;59.00
49711;DHT22;35602;44.534;18.696;2022-09-06T05:32:25;24.80;59.00
49711;DHT22;35602;44.534;18.696;2022-09-06T05:37:25;24.80;59.00
49711;DHT22;35602;44.534;18.696;2022-09-06T05:42:26;24.80;58.90
49711;DHT22;35602;44.534;18.696;2022-09-06T05:47:27;24.80;59.00
49711;DHT22;35602;44.534;18.696;2022-09-06T05:52:30;24.80;59.00
49711;DHT22;35602;44.534;18.696;2022-09-06T05:57:32;24.80;58.90
49711;DHT22;35602;44.534;18.696;2022-09-06T06:02:34;24.80;58.80
49711;DHT22;35602;44.534;18.696;2022-09-06T06:07:35;24.80;58.70
49711;DHT22;35602;44.534;18.696;2022-09-06T06:12:36;24.80;58.80
49711;DHT22;35602;44.534;18.696;2022-09-06T06:17:38;24.80;58.70
49711;DHT22;35602;44.534;18.696;2022-09-06T06:22:41;24.80;58.70
49711;DHT22;35602;44.534;18.696;2022-09-06T06:27:42;24.80;58.70
49711;DHT22;35602;44.534;18.696;2022-09-06T06:32:43;24.80;58.60
49711;DHT22;35602;44.534;18.696;2022-09-06T06:37:44;24.80;58.50
49711;DHT22;35602;44.534;18.696;2022-09-06T06:42:45;24.80;58.70
49711;DHT22;35602;44.534;18.696;2022-09-06T06:47:48;24.80;58.70
49711;DHT22;35602;44.534;18.696;2022-09-06T06:52:50;24.80;58.70
49711;DHT22;35602;44.534;18.696;2022-09-06T06:57:50;24.80;58.70
49711;DHT22;35602;44.534;18.696;2022-09-06T07:02:51;24.80;58.60
49711;DHT22;35602;44.534;18.696;2022-09-06T07:07:52;24.70;57.30
49711;DHT22;35602;44.534;18.696;2022-09-06T07:12:53;24.70;57.40
49711;DHT22;35602;44.534;18.696;2022-09-06T07:17:55;24.70;57.40
49711;DHT22;35602;44.534;18.696;2022-09-06T07:23:04;24.70;57.50
49711;DHT22;35602;44.534;18.696;2022-09-06T07:28:07;24.70;57.60
49711;DHT22;35602;44.534;18.696;2022-09-06T07:33:08;24.70;57.70
49711;DHT22;35602;44.534;18.696;2022-09-06T07:38:09;24.70;57.90
49711;DHT22;35602;44.534;18.696;2022-09-06T07:43:10;24.70;58.60
49711;DHT22;35602;44.534;18.696;2022-09-06T07:48:11;24.70;58.10
49711;DHT22;35602;44.534;18.696;2022-09-06T07:53:12;24.70;58.90
49711;DHT22;35602;44.534;18.696;2022-09-06T07:58:13;24.70;58.40
49711;DHT22;35602;44.534;18.696;2022-09-06T08:03:13;24.80;59.00
49711;DHT22;35602;44.534;18.696;2022-09-06T08:08:14;24.80;58.60
49711;DHT22;35602;44.534;18.696;2022-09-06T08:13:15;24.80;59.00
49711;DHT22;35602;44.534;18.696;2022-09-06T08:18:16;24.80;59.00
49711;DHT22;35602;44.534;18.696;2022-09-06T08:23:17;24.80;59.30
49711;DHT22;35602;44.534;18.696;2022-09-06T08:28:18;24.80;59.50
49711;DHT22;35602;44.534;18.696;2022-09-06T08:33:19;24.80;59.80
49711;DHT22;35602;44.534;18.696;2022-09-06T08:38:21;24.90;59.70
49711;DHT22;35602;44.534;18.696;2022-09-06T08:43:22;24.90;59.50
49711;DHT22;35602;44.534;18.696;2022-09-06T08:48:23;24.90;59.50
49711;DHT22;35602;44.534;18.696;2022-09-06T08:53:27;24.90;59.50
49711;DHT22;35602;44.534;18.696;2022-09-06T08:59:13;25.00;59.50
49711;DHT22;35602;44.534;18.696;2022-09-06T09:04:19;25.00;59.60
49711;DHT22;35602;44.534;18.696;2022-09-06T09:09:24;25.00;60.00
49711;DHT22;35602;44.534;18.696;2022-09-06T09:14:29;25.00;60.00
49711;DHT22;35602;44.534;18.696;2022-09-06T09:19:30;25.00;59.90
49711;DHT22;35602;44.534;18.696;2022-09-06T09:24:36;25.10;60.00
49711;DHT22;35602;44.534;18.696;2022-09-06T09:30:00;25.10;60.60
49711;DHT22;35602;44.534;18.696;2022-09-06T09:37:09;25.10;60.80
49711;DHT22;35602;44.534;18.696;2022-09-06T09:42:22;25.10;61.20
49711;DHT22;35602;44.534;18.696;2022-09-06T09:47:29;25.10;61.30
49711;DHT22;35602;44.534;18.696;2022-09-06T09:52:30;25.10;61.20
49711;DHT22;35602;44.534;18.696;2022-09-06T09:57:44;25.20;61.30
49711;DHT22;35602;44.534;18.696;2022-09-06T10:02:46;25.20;61.10
49711;DHT22;35602;44.534;18.696;2022-09-06T10:07:54;25.20;60.90
49711;DHT22;35602;44.534;18.696;2022-09-06T10:14:10;25.20;60.70
49711;DHT22;35602;44.534;18.696;2022-09-06T10:19:22;25.20;60.00
49711;DHT22;35602;44.534;18.696;2022-09-06T10:35:38;25.30;59.00
49711;DHT22;35602;44.534;18.696;2022-09-06T10:41:11;25.30;58.60
49711;DHT22;35602;44.534;18.696;2022-09-06T10:46:24;25.30;58.40
49711;DHT22;35602;44.534;18.696;2022-09-06T10:51:48;25.40;58.50
49711;DHT22;35602;44.534;18.696;2022-09-06T10:57:50;25.40;58.30
49711;DHT22;35602;44.534;18.696;2022-09-06T11:15:11;25.40;56.80
49711;DHT22;35602;44.534;18.696;2022-09-06T11:20:24;25.40;56.60
49711;DHT22;35602;44.534;18.696;2022-09-06T11:26:41;25.40;56.60
49711;DHT22;35602;44.534;18.696;2022-09-06T11:31:59;25.40;56.60
49711;DHT22;35602;44.534;18.696;2022-09-06T11:37:04;25.40;56.50
49711;DHT22;35602;44.534;18.696;2022-09-06T11:48:33;25.40;56.70
49711;DHT22;35602;44.534;18.696;2022-09-06T11:54:11;25.40;56.60
49711;DHT22;35602;44.534;18.696;2022-09-06T11:59:34;25.50;56.60
49711;DHT22;35602;44.534;18.696;2022-09-06T12:05:14;25.50;55.80
49711;DHT22;35602;44.534;18.696;2022-09-06T12:13:50;25.50;55.70
49711;DHT22;35602;44.534;18.696;2022-09-06T12:18:53;25.50;55.30
49711;DHT22;35602;44.534;18.696;2022-09-06T12:23:54;25.50;55.40
49711;DHT22;35602;44.534;18.696;2022-09-06T12:28:55;25.50;55.10
49711;DHT22;35602;44.534;18.696;2022-09-06T12:33:58;25.60;55.00
49711;DHT22;35602;44.534;18.696;2022-09-06T12:39:09;25.60;54.90
49711;DHT22;35602;44.534;18.696;2022-09-06T12:44:13;25.60;54.50
49711;DHT22;35602;44.534;18.696;2022-09-06T12:49:19;25.70;54.50
49711;DHT22;35602;44.534;18.696;2022-09-06T12:54:25;25.70;54.90
49711;DHT22;35602;44.534;18.696;2022-09-06T12:59:25;25.70;54.80
49711;DHT22;35602;44.534;18.696;2022-09-06T13:04:37;25.70;54.60
49711;DHT22;35602;44.534;18.696;2022-09-06T13:09:43;25.70;54.20
49711;DHT22;35602;44.534;18.696;2022-09-06T13:14:45;25.70;54.20
49711;DHT22;35602;44.534;18.696;2022-09-06T13:19:51;25.70;53.80
49711;DHT22;35602;44.534;18.696;2022-09-06T13:24:55;25.70;54.00
49711;DHT22;35602;44.534;18.696;2022-09-06T13:32:12;25.80;54.00
49711;DHT22;35602;44.534;18.696;2022-09-06T13:37:14;25.80;54.00
49711;DHT22;35602;44.534;18.696;2022-09-06T13:42:32;25.80;54.20
49711;DHT22;35602;44.534;18.696;2022-09-06T13:47:35;25.80;54.40
49711;DHT22;35602;44.534;18.696;2022-09-06T13:52:35;25.80;54.50
49711;DHT22;35602;44.534;18.696;2022-09-06T13:57:36;25.80;54.40
49711;DHT22;35602;44.534;18.696;2022-09-06T14:02:39;25.80;54.60
49711;DHT22;35602;44.534;18.696;2022-09-06T14:07:41;25.80;54.50
49711;DHT22;35602;44.534;18.696;2022-09-06T14:12:41;25.80;54.60
49711;DHT22;35602;44.534;18.696;2022-09-06T14:17:42;25.80;54.00
49711;DHT22;35602;44.534;18.696;2022-09-06T14:22:43;25.80;53.70
49711;DHT22;35602;44.534;18.696;2022-09-06T14:27:44;25.80;53.70
49711;DHT22;35602;44.534;18.696;2022-09-06T14:32:47;25.80;53.30
49711;DHT22;35602;44.534;18.696;2022-09-06T14:37:49;25.80;53.40
49711;DHT22;35602;44.534;18.696;2022-09-06T14:42:50;25.70;53.70
49711;DHT22;35602;44.534;18.696;2022-09-06T14:47:51;25.70;54.00
49711;DHT22;35602;44.534;18.696;2022-09-06T14:52:51;25.70;54.80
49711;DHT22;35602;44.534;18.696;2022-09-06T14:57:52;25.60;54.30
49711;DHT22;35602;44.534;18.696;2022-09-06T15:02:53;25.60;54.50
49711;DHT22;35602;44.534;18.696;2022-09-06T15:07:55;25.60;54.70
49711;DHT22;35602;44.534;18.696;2022-09-06T15:12:56;25.50;55.10
49711;DHT22;35602;44.534;18.696;2022-09-06T15:17:57;25.50;54.90
49711;DHT22;35602;44.534;18.696;2022-09-06T15:22:57;25.50;55.00
49711;DHT22;35602;44.534;18.696;2022-09-06T15:27:58;25.50;55.10
49711;DHT22;35602;44.534;18.696;2022-09-06T15:32:59;25.50;55.20
49711;DHT22;35602;44.534;18.696;2022-09-06T15:38:00;25.50;55.40
49711;DHT22;35602;44.534;18.696;2022-09-06T15:43:01;25.40;55.40
49711;DHT22;35602;44.534;18.696;2022-09-06T15:48:02;25.40;55.40
49711;DHT22;35602;44.534;18.696;2022-09-06T15:53:03;25.40;55.60
49711;DHT22;35602;44.534;18.696;2022-09-06T15:58:04;25.40;55.60
49711;DHT22;35602;44.534;18.696;2022-09-06T16:03:05;25.40;55.80
49711;DHT22;35602;44.534;18.696;2022-09-06T16:08:05;25.40;56.40
49711;DHT22;35602;44.534;18.696;2022-09-06T16:13:06;25.40;56.00
49711;DHT22;35602;44.534;18.696;2022-09-06T16:18:07;25.40;55.90
49711;DHT22;35602;44.534;18.696;2022-09-06T16:23:08;25.40;56.10
49711;DHT22;35602;44.534;18.696;2022-09-06T16:28:09;25.30;56.00
49711;DHT22;35602;44.534;18.696;2022-09-06T16:33:11;25.30;56.10
49711;DHT22;35602;44.534;18.696;2022-09-06T16:38:12;25.30;56.20
49711;DHT22;35602;44.534;18.696;2022-09-06T16:43:13;25.30;56.20
49711;DHT22;35602;44.534;18.696;2022-09-06T16:48:14;25.30;56.30
49711;DHT22;35602;44.534;18.696;2022-09-06T16:53:15;25.30;56.40
49711;DHT22;35602;44.534;18.696;2022-09-06T16:58:16;25.30;56.40
49711;DHT22;35602;44.534;18.696;2022-09-06T17:03:17;25.30;56.50
49711;DHT22;35602;44.534;18.696;2022-09-06T17:08:20;25.30;56.50
49711;DHT22;35602;44.534;18.696;2022-09-06T17:13:21;25.30;56.50
49711;DHT22;35602;44.534;18.696;2022-09-06T17:18:23;25.30;56.70
49711;DHT22;35602;44.534;18.696;2022-09-06T17:23:26;25.30;56.60
49711;DHT22;35602;44.534;18.696;2022-09-06T17:28:27;25.30;56.70
49711;DHT22;35602;44.534;18.696;2022-09-06T17:33:29;25.30;56.70
49711;DHT22;35602;44.534;18.696;2022-09-06T17:38:30;25.30;56.80
49711;DHT22;35602;44.534;18.696;2022-09-06T17:43:31;25.20;56.80
49711;DHT22;35602;44.534;18.696;2022-09-06T17:48:34;25.20;56.80
49711;DHT22;35602;44.534;18.696;2022-09-06T17:53:36;25.30;56.90
49711;DHT22;35602;44.534;18.696;2022-09-06T17:58:38;25.20;56.90
49711;DHT22;35602;44.534;18.696;2022-09-06T18:03:41;25.30;57.10
49711;DHT22;35602;44.534;18.696;2022-09-06T18:08:43;25.20;57.00
49711;DHT22;35602;44.534;18.696;2022-09-06T18:13:45;25.20;57.10
49711;DHT22;35602;44.534;18.696;2022-09-06T18:18:50;25.30;57.20
49711;DHT22;35602;44.534;18.696;2022-09-06T18:23:52;25.20;57.10
49711;DHT22;35602;44.534;18.696;2022-09-06T18:28:53;25.30;57.40
49711;DHT22;35602;44.534;18.696;2022-09-06T18:33:55;25.20;57.30
49711;DHT22;35602;44.534;18.696;2022-09-06T18:39:01;25.20;57.40
49711;DHT22;35602;44.534;18.696;2022-09-06T18:44:04;25.20;57.40
49711;DHT22;35602;44.534;18.696;2022-09-06T18:49:07;25.20;57.40
49711;DHT22;35602;44.534;18.696;2022-09-06T18:54:09;25.20;57.50
49711;DHT22;35602;44.534;18.696;2022-09-06T18:59:11;25.20;57.50
49711;DHT22;35602;44.534;18.696;2022-09-06T19:04:12;25.20;57.60
49711;DHT22;35602;44.534;18.696;2022-09-06T19:09:14;25.20;57.70
49711;DHT22;35602;44.534;18.696;2022-09-06T19:14:16;25.20;57.70
49711;DHT22;35602;44.534;18.696;2022-09-06T19:19:17;25.20;57.70
49711;DHT22;35602;44.534;18.696;2022-09-06T19:24:18;25.20;57.80
49711;DHT22;35602;44.534;18.696;2022-09-06T19:29:22;25.20;57.90
49711;DHT22;35602;44.534;18.696;2022-09-06T19:34:23;25.20;57.90
49711;DHT22;35602;44.534;18.696;2022-09-06T19:39:23;25.20;57.90
49711;DHT22;35602;44.534;18.696;2022-09-06T19:44:28;25.20;58.00
49711;DHT22;35602;44.534;18.696;2022-09-06T19:49:28;25.20;58.10
49711;DHT22;35602;44.534;18.696;2022-09-06T19:54:30;25.20;58.10
49711;DHT22;35602;44.534;18.696;2022-09-06T19:59:31;25.20;58.10
49711;DHT22;35602;44.534;18.696;2022-09-06T20:04:35;25.20;58.10
49711;DHT22;35602;44.534;18.696;2022-09-06T20:09:36;25.20;58.20
49711;DHT22;35602;44.534;18.696;2022-09-06T20:14:37;25.20;58.20
49711;DHT22;35602;44.534;18.696;2022-09-06T20:19:37;25.20;58.30
49711;DHT22;35602;44.534;18.696;2022-09-06T20:24:38;25.20;58.20
49711;DHT22;35602;44.534;18.696;2022-09-06T20:29:39;25.20;58.30
49711;DHT22;35602;44.534;18.696;2022-09-06T20:34:40;25.20;58.30
49711;DHT22;35602;44.534;18.696;2022-09-06T20:39:42;25.10;58.30
49711;DHT22;35602;44.534;18.696;2022-09-06T20:44:43;25.20;58.30
49711;DHT22;35602;44.534;18.696;2022-09-06T20:49:44;25.20;59.10
49711;DHT22;35602;44.534;18.696;2022-09-06T20:54:44;25.20;58.40
49711;DHT22;35602;44.534;18.696;2022-09-06T20:59:45;25.10;58.40
49711;DHT22;35602;44.534;18.696;2022-09-06T21:04:46;25.20;58.40
49711;DHT22;35602;44.534;18.696;2022-09-06T21:09:47;25.10;58.40
49711;DHT22;35602;44.534;18.696;2022-09-06T21:14:48;25.10;58.30
49711;DHT22;35602;44.534;18.696;2022-09-06T21:19:49;25.20;58.60
49711;DHT22;35602;44.534;18.696;2022-09-06T21:24:49;25.10;58.40
49711;DHT22;35602;44.534;18.696;2022-09-06T21:29:50;25.10;58.50
49711;DHT22;35602;44.534;18.696;2022-09-06T21:34:51;25.10;58.40
49711;DHT22;35602;44.534;18.696;2022-09-06T21:39:52;25.10;58.60
49711;DHT22;35602;44.534;18.696;2022-09-06T21:44:53;25.10;58.60
49711;DHT22;35602;44.534;18.696;2022-09-06T21:49:54;25.10;58.70
49711;DHT22;35602;44.534;18.696;2022-09-06T21:54:55;25.10;58.70
49711;DHT22;35602;44.534;18.696;2022-09-06T21:59:55;25.10;58.70
49711;DHT22;35602;44.534;18.696;2022-09-06T22:04:56;25.10;58.80
49711;DHT22;35602;44.534;18.696;2022-09-06T22:09:57;25.10;58.80
49711;DHT22;35602;44.534;18.696;2022-09-06T22:14:58;25.10;58.90
49711;DHT22;35602;44.534;18.696;2022-09-06T22:19:59;25.10;58.80
49711;DHT22;35602;44.534;18.696;2022-09-06T22:24:59;25.10;58.80
49711;DHT22;35602;44.534;18.696;2022-09-06T22:30:00;25.10;58.90
49711;DHT22;35602;44.534;18.696;2022-09-06T22:35:01;25.10;58.80
49711;DHT22;35602;44.534;18.696;2022-09-06T22:40:06;25.10;59.00
49711;DHT22;35602;44.534;18.696;2022-09-06T22:45:07;25.10;59.00
49711;DHT22;35602;44.534;18.696;2022-09-06T22:50:09;25.10;59.00
49711;DHT22;35602;44.534;18.696;2022-09-06T22:55:10;25.10;59.10
49711;DHT22;35602;44.534;18.696;2022-09-06T23:00:11;25.10;59.10
49711;DHT22;35602;44.534;18.696;2022-09-06T23:05:13;25.10;59.00
49711;DHT22;35602;44.534;18.696;2022-09-06T23:10:13;25.10;59.10
49711;DHT22;35602;44.534;18.696;2022-09-06T23:15:14;25.10;58.90
49711;DHT22;35602;44.534;18.696;2022-09-06T23:20:16;25.10;59.00
49711;DHT22;35602;44.534;18.696;2022-09-06T23:25:17;25.10;59.20
49711;DHT22;35602;44.534;18.696;2022-09-06T23:30:18;25.10;59.10
49711;DHT22;35602;44.534;18.696;2022-09-06T23:35:19;25.10;59.20
49711;DHT22;35602;44.534;18.696;2022-09-06T23:40:20;25.10;59.20
49711;DHT22;35602;44.534;18.696;2022-09-06T23:45:20;25.00;59.10
49711;DHT22;35602;44.534;18.696;2022-09-06T23:50:21;25.10;59.80
49711;DHT22;35602;44.534;18.696;2022-09-06T23:55:22;25.00;59.20
